createdAt,value
2023-02-17T00:01:39.752Z,27.95
2023-02-17T00:04:12.250Z,28.52
2023-02-17T00:06:41.349Z,25.88
2023-02-17T00:09:09.770Z,25.90
2023-02-17T00:11:38.164Z,25.58
2023-02-17T00:14:06.463Z,23.73
2023-02-17T00:16:34.877Z,22.80
2023-02-17T00:19:25.063Z,21.55
2023-02-17T00:21:58.251Z,22.08
2023-02-17T00:24:28.976Z,21.98
2023-02-17T00:27:03.294Z,22.67
2023-02-17T00:29:31.632Z,24.15
2023-02-17T00:32:00.345Z,23.77
2023-02-17T00:35:10.435Z,23.17
2023-02-17T00:37:40.666Z,22.77
2023-02-17T00:40:12.802Z,24.38
2023-02-17T00:42:41.276Z,25.48
2023-02-17T00:45:10.639Z,23.08
2023-02-17T00:47:38.928Z,23.00
2023-02-17T00:50:08.862Z,22.98
2023-02-17T00:52:37.286Z,22.55
2023-02-17T00:55:07.942Z,22.33
2023-02-17T00:57:36.330Z,23.45
2023-02-17T01:00:06.442Z,23.38
2023-02-17T01:02:35.018Z,24.45
2023-02-17T01:05:03.405Z,24.88
2023-02-17T01:07:31.873Z,24.63
2023-02-17T01:10:00.764Z,24.63
2023-02-17T01:12:30.472Z,23.30
2023-02-17T01:14:58.955Z,23.25
2023-02-17T01:17:27.243Z,22.60
2023-02-17T01:19:58.410Z,23.58
2023-02-17T01:22:27.062Z,23.00
2023-02-17T01:24:58.373Z,23.33
2023-02-17T01:27:26.798Z,24.55
2023-02-17T01:29:56.792Z,26.13
2023-02-17T01:32:24.989Z,24.42
2023-02-17T01:34:53.168Z,24.83
2023-02-17T01:37:22.117Z,25.10
2023-02-17T01:39:50.356Z,25.08
2023-02-17T01:42:22.043Z,26.08
2023-02-17T01:45:40.061Z,24.98
2023-02-17T01:48:14.314Z,23.48
2023-02-17T01:51:03.013Z,26.05
2023-02-17T01:53:38.730Z,26.08
2023-02-17T01:56:10.220Z,26.05
2023-02-17T01:58:42.562Z,25.73
2023-02-17T02:01:13.044Z,28.45
2023-02-17T02:03:41.737Z,26.00
2023-02-17T02:06:15.276Z,26.63
2023-02-17T02:08:52.381Z,25.60
2023-02-17T02:11:20.729Z,26.45
2023-02-17T02:13:49.409Z,25.92
2023-02-17T02:16:25.958Z,28.10
2023-02-17T02:19:02.187Z,27.25
2023-02-17T02:22:03.378Z,27.75
2023-02-17T02:24:48.282Z,27.77
2023-02-17T02:27:32.364Z,28.83
2023-02-17T02:30:45.245Z,26.40
2023-02-17T02:33:25.643Z,27.25
2023-02-17T02:36:05.664Z,25.75
2023-02-17T02:38:42.690Z,25.65
2023-02-17T02:41:15.237Z,24.25
2023-02-17T02:43:45.056Z,23.90
2023-02-17T02:46:13.383Z,25.02
2023-02-17T02:48:43.852Z,25.67
2023-02-17T02:51:31.151Z,25.77
2023-02-17T02:54:23.569Z,27.17
2023-02-17T02:57:32.746Z,26.88
2023-02-17T03:00:14.770Z,27.13
2023-02-17T03:02:52.654Z,26.00
2023-02-17T03:05:47.939Z,26.77
2023-02-17T03:08:20.678Z,26.17
2023-02-17T03:10:51.052Z,26.88
2023-02-17T03:13:21.068Z,26.08
2023-02-17T03:15:50.552Z,25.38
2023-02-17T03:18:19.051Z,25.45
2023-02-17T03:21:01.399Z,25.90
2023-02-17T03:23:29.627Z,24.95
2023-02-17T03:25:59.582Z,23.42
2023-02-17T03:28:28.168Z,20.85
2023-02-17T03:30:56.779Z,20.80
2023-02-17T03:33:27.113Z,21.63
2023-02-17T03:35:57.332Z,20.55
2023-02-17T03:38:25.766Z,21.15
2023-02-17T03:40:56.389Z,20.17
2023-02-17T03:43:24.583Z,20.52
2023-02-17T03:45:52.816Z,19.35
2023-02-17T03:48:21.416Z,20.63
2023-02-17T03:50:51.171Z,19.38
2023-02-17T03:53:20.975Z,20.25
2023-02-17T03:55:49.588Z,19.42
2023-02-17T03:58:19.864Z,19.20
2023-02-17T04:00:48.056Z,18.92
2023-02-17T04:03:16.342Z,19.88
2023-02-17T04:05:50.334Z,19.60
2023-02-17T04:08:20.497Z,20.60
2023-02-17T04:10:53.087Z,19.20
2023-02-17T04:13:21.786Z,20.10
2023-02-17T04:15:51.002Z,20.88
2023-02-17T04:18:19.901Z,20.10
2023-02-17T04:20:54.589Z,20.83
2023-02-17T04:23:24.617Z,20.65
2023-02-17T04:26:06.098Z,20.95
2023-02-17T04:28:34.722Z,20.58
2023-02-17T04:31:03.195Z,22.02
2023-02-17T04:33:34.675Z,21.80
2023-02-17T04:36:03.516Z,19.77
2023-02-17T04:38:34.550Z,21.65
2023-02-17T04:41:03.414Z,20.52
2023-02-17T04:43:31.970Z,21.85
2023-02-17T04:46:00.827Z,21.10
2023-02-17T04:48:29.491Z,20.65
2023-02-17T04:50:59.610Z,21.58
2023-02-17T04:53:27.777Z,21.48
2023-02-17T04:56:00.169Z,20.25
2023-02-17T04:58:28.583Z,19.38
2023-02-17T05:01:01.215Z,19.42
2023-02-17T05:03:29.761Z,20.17
2023-02-17T05:05:58.540Z,19.33
2023-02-17T05:08:28.585Z,20.23
2023-02-17T05:11:00.957Z,21.33
2023-02-17T05:13:29.167Z,18.90
2023-02-17T05:16:00.966Z,19.60
2023-02-17T05:18:29.939Z,18.67
2023-02-17T05:20:58.517Z,20.13
2023-02-17T05:23:27.255Z,20.58
2023-02-17T05:25:57.293Z,20.33
2023-02-17T05:28:25.479Z,19.00
2023-02-17T05:30:53.795Z,20.67
2023-02-17T05:33:23.835Z,18.98
2023-02-17T05:35:52.129Z,18.55
2023-02-17T05:38:20.498Z,19.88
2023-02-17T05:40:48.808Z,18.38
2023-02-17T05:43:19.065Z,18.25
2023-02-17T05:45:47.601Z,18.80
2023-02-17T05:48:16.038Z,19.73
2023-02-17T05:50:53.081Z,18.10
2023-02-17T05:53:21.419Z,18.00
2023-02-17T05:55:49.628Z,19.33
2023-02-17T05:58:19.252Z,19.70
2023-02-17T06:00:47.845Z,19.55
2023-02-17T06:03:16.424Z,20.42
2023-02-17T06:05:50.289Z,20.33
2023-02-17T06:08:18.770Z,20.38
2023-02-17T06:10:47.226Z,18.70
2023-02-17T06:13:35.714Z,19.55
2023-02-17T06:16:04.158Z,18.90
2023-02-17T06:18:32.449Z,17.98
2023-02-17T06:21:01.029Z,18.08
2023-02-17T06:23:29.593Z,16.20
2023-02-17T06:25:58.349Z,16.80
2023-02-17T06:28:29.373Z,16.63
2023-02-17T06:31:00.463Z,16.27
2023-02-17T06:33:29.113Z,15.98
2023-02-17T06:36:00.570Z,16.65
2023-02-17T06:38:28.950Z,16.60
2023-02-17T06:41:00.150Z,16.25
2023-02-17T06:43:30.696Z,16.27
2023-02-17T06:46:00.415Z,15.07
2023-02-17T06:48:28.780Z,15.02
2023-02-17T06:50:57.009Z,15.82
2023-02-17T06:53:25.275Z,16.50
2023-02-17T06:55:53.565Z,15.77
2023-02-17T06:58:21.802Z,15.80
2023-02-17T07:00:51.601Z,15.65
2023-02-17T07:03:20.131Z,15.57
2023-02-17T07:05:48.376Z,14.60
2023-02-17T07:08:18.548Z,15.02
2023-02-17T07:10:46.713Z,15.63
2023-02-17T07:13:14.971Z,14.82
2023-02-17T07:15:43.447Z,15.35
2023-02-17T07:18:13.076Z,14.23
2023-02-17T07:20:41.338Z,14.98
2023-02-17T07:23:09.815Z,14.68
2023-02-17T07:25:39.298Z,14.98
2023-02-17T07:28:09.650Z,14.38
2023-02-17T07:30:39.603Z,15.00
2023-02-17T07:33:08.264Z,13.52
2023-02-17T07:35:44.072Z,13.40
2023-02-17T07:38:13.031Z,14.70
2023-02-17T07:40:41.779Z,14.98
2023-02-17T07:43:10.854Z,13.75
2023-02-17T07:45:39.375Z,13.88
2023-02-17T07:48:07.796Z,14.35
2023-02-17T07:50:37.480Z,13.85
2023-02-17T07:53:05.709Z,14.18
2023-02-17T07:55:33.902Z,14.27
2023-02-17T07:58:02.080Z,14.57
2023-02-17T08:00:30.340Z,12.93
2023-02-17T08:02:58.610Z,13.43
2023-02-17T08:05:26.951Z,13.65
2023-02-17T08:08:13.031Z,12.32
2023-02-17T08:11:01.840Z,11.55
2023-02-17T08:13:30.038Z,12.02
2023-02-17T08:15:59.395Z,11.43
2023-02-17T08:18:29.152Z,11.00
2023-02-17T08:20:58.879Z,10.77
2023-02-17T08:23:30.396Z,11.35
2023-02-17T08:25:59.246Z,11.60
2023-02-17T08:28:27.512Z,10.88
2023-02-17T08:30:55.918Z,11.07
2023-02-17T08:33:24.249Z,11.07
2023-02-17T08:35:57.266Z,10.77
2023-02-17T08:38:29.745Z,10.95
2023-02-17T08:40:58.096Z,10.63
2023-02-17T08:43:26.392Z,10.88
2023-02-17T08:45:54.728Z,11.63
2023-02-17T08:48:23.072Z,11.75
2023-02-17T08:50:51.345Z,12.25
2023-02-17T08:53:19.685Z,12.25
2023-02-17T08:55:50.006Z,11.32
2023-02-17T08:58:20.390Z,11.27
2023-02-17T09:00:48.596Z,11.77
2023-02-17T09:03:17.110Z,11.70
2023-02-17T09:05:45.565Z,10.88
2023-02-17T09:08:13.878Z,10.95
2023-02-17T09:10:42.229Z,11.77
2023-02-17T09:13:11.991Z,11.57
2023-02-17T09:15:40.214Z,10.75
2023-02-17T09:18:08.510Z,10.07
2023-02-17T09:20:37.641Z,10.57
2023-02-17T09:23:05.892Z,11.13
2023-02-17T09:25:34.578Z,10.43
2023-02-17T09:28:02.860Z,10.68
2023-02-17T09:30:32.594Z,11.00
2023-02-17T09:33:01.544Z,11.70
2023-02-17T09:35:30.022Z,11.05
2023-02-17T09:37:58.285Z,11.75
2023-02-17T09:40:40.027Z,11.10
2023-02-17T09:43:13.889Z,10.15
2023-02-17T09:45:48.092Z,10.20
2023-02-17T09:48:20.284Z,9.30
2023-02-17T09:50:55.881Z,9.45
2023-02-17T09:53:31.054Z,9.38
2023-02-17T09:56:03.226Z,9.57
2023-02-17T09:58:37.531Z,9.57
2023-02-17T10:01:15.243Z,11.27
2023-02-17T10:03:47.229Z,10.85
2023-02-17T10:06:19.809Z,10.80
2023-02-17T10:08:53.879Z,10.73
2023-02-17T10:11:31.514Z,10.90
2023-02-17T10:14:04.673Z,10.10
2023-02-17T10:16:42.009Z,10.63
2023-02-17T10:19:16.642Z,10.07
2023-02-17T10:21:58.439Z,11.23
2023-02-17T10:24:26.962Z,11.23
2023-02-17T10:27:14.035Z,11.20
2023-02-17T10:29:52.737Z,11.52
2023-02-17T10:32:26.618Z,11.27
2023-02-17T10:35:16.654Z,11.27
2023-02-17T10:37:49.359Z,11.82
2023-02-17T10:40:28.029Z,11.52
2023-02-17T10:42:59.957Z,11.60
2023-02-17T10:45:33.218Z,12.18
2023-02-17T10:48:07.821Z,12.25
2023-02-17T10:50:38.088Z,12.55
2023-02-17T10:53:17.095Z,12.68
2023-02-17T10:55:56.933Z,12.93
2023-02-17T10:58:32.475Z,12.77
2023-02-17T11:01:02.733Z,13.23
2023-02-17T11:03:34.209Z,12.93
2023-02-17T11:06:05.698Z,12.55
2023-02-17T11:08:38.908Z,13.23
2023-02-17T11:11:18.130Z,13.82
2023-02-17T11:14:00.946Z,14.43
2023-02-17T11:16:35.103Z,14.50
2023-02-17T11:19:05.780Z,14.10
2023-02-17T11:21:36.265Z,13.75
2023-02-17T11:24:07.186Z,12.85
2023-02-17T11:26:37.247Z,12.02
2023-02-17T11:29:10.802Z,12.02
2023-02-17T11:31:40.763Z,12.38
2023-02-17T11:34:16.269Z,11.13
2023-02-17T11:37:00.102Z,11.10
2023-02-17T11:39:28.863Z,11.85
2023-02-17T11:42:00.926Z,11.07
2023-02-17T11:44:30.826Z,10.68
2023-02-17T11:47:12.648Z,10.80
2023-02-17T11:50:31.742Z,10.70
2023-02-17T11:53:22.078Z,10.07
2023-02-17T11:56:06.593Z,9.77
2023-02-17T11:59:01.448Z,8.40
2023-02-17T12:01:52.036Z,7.85
2023-02-17T12:04:28.287Z,7.25
2023-02-17T12:07:36.530Z,6.57
2023-02-17T12:10:12.828Z,6.70
2023-02-17T12:13:00.703Z,7.07
2023-02-17T12:15:44.930Z,6.90
2023-02-17T12:18:34.954Z,6.95
2023-02-17T12:21:10.945Z,6.45
2023-02-17T12:24:17.848Z,5.80
2023-02-17T12:26:54.686Z,6.20
2023-02-17T12:29:42.886Z,5.65
2023-02-17T12:32:39.863Z,5.30
2023-02-17T12:35:19.636Z,5.15
2023-02-17T12:37:57.012Z,5.28
2023-02-17T12:40:38.856Z,4.85
2023-02-17T12:43:24.100Z,5.20
2023-02-17T12:45:54.576Z,4.93
2023-02-17T12:48:31.251Z,4.85
2023-02-17T12:51:07.746Z,5.40
2023-02-17T12:53:47.047Z,4.90
2023-02-17T12:56:48.779Z,4.85
2023-02-17T12:59:21.307Z,4.95
2023-02-17T13:01:56.666Z,4.80
2023-02-17T13:04:28.603Z,4.88
2023-02-17T13:07:11.854Z,5.13
2023-02-17T13:09:42.870Z,5.63
2023-02-17T13:12:32.516Z,5.80
2023-02-17T13:15:03.910Z,5.28
2023-02-17T13:17:35.214Z,5.80
2023-02-17T13:20:28.795Z,5.07
2023-02-17T13:23:09.944Z,5.80
2023-02-17T13:25:39.105Z,5.85
2023-02-17T13:28:37.037Z,5.78
2023-02-17T13:31:18.827Z,4.72
2023-02-17T13:33:51.177Z,5.90
2023-02-17T13:36:36.562Z,4.95
2023-02-17T13:39:28.051Z,4.90
2023-02-17T13:41:58.942Z,5.10
2023-02-17T13:44:32.052Z,5.15
2023-02-17T13:47:03.175Z,5.07
2023-02-17T13:49:36.863Z,4.75
2023-02-17T13:52:19.989Z,4.82
2023-02-17T13:54:59.440Z,4.95
2023-02-17T13:57:30.338Z,5.03
2023-02-17T14:00:27.443Z,5.20
2023-02-17T14:03:01.473Z,5.05
2023-02-17T14:05:39.183Z,5.03
2023-02-17T14:08:18.913Z,4.82
2023-02-17T14:10:47.775Z,5.57
2023-02-17T14:13:16.386Z,5.05
2023-02-17T14:15:56.411Z,5.13
2023-02-17T14:18:36.028Z,4.95
2023-02-17T14:21:12.960Z,5.35
2023-02-17T14:23:50.631Z,5.20
2023-02-17T14:26:31.881Z,4.80
2023-02-17T14:29:02.696Z,5.13
2023-02-17T14:31:45.193Z,4.70
2023-02-17T14:34:27.097Z,5.53
2023-02-17T14:36:59.534Z,4.97
2023-02-17T14:39:27.787Z,4.75
2023-02-17T14:41:56.028Z,4.95
2023-02-17T14:44:24.370Z,5.30
2023-02-17T14:46:53.998Z,5.40
2023-02-17T14:49:22.294Z,5.47
2023-02-17T14:51:50.680Z,5.85
2023-02-17T14:54:20.534Z,5.07
2023-02-17T14:57:04.538Z,5.53
2023-02-17T14:59:33.274Z,5.38
2023-02-17T15:02:03.495Z,5.00
2023-02-17T15:04:31.847Z,5.20
2023-02-17T15:07:00.366Z,5.38
2023-02-17T15:09:33.254Z,5.55
2023-02-17T15:12:03.955Z,5.70
2023-02-17T15:14:32.152Z,5.25
2023-02-17T15:17:00.497Z,5.32
2023-02-17T15:19:30.110Z,5.55
2023-02-17T15:22:01.329Z,5.63
2023-02-17T15:24:34.075Z,5.35
2023-02-17T15:27:03.220Z,5.85
2023-02-17T15:29:31.518Z,5.60
2023-02-17T15:32:03.584Z,5.15
2023-02-17T15:34:34.715Z,4.93
2023-02-17T15:37:03.632Z,5.63
2023-02-17T15:39:31.886Z,5.28
2023-02-17T15:42:08.261Z,5.28
2023-02-17T15:44:43.169Z,5.13
2023-02-17T15:47:17.799Z,5.88
2023-02-17T15:49:47.785Z,5.72
2023-02-17T15:52:16.802Z,5.15
2023-02-17T15:54:46.289Z,6.57
2023-02-17T15:57:23.688Z,5.10
2023-02-17T15:59:54.972Z,5.45
2023-02-17T16:02:26.276Z,5.57
2023-02-17T16:04:55.935Z,5.80
2023-02-17T16:10:09.002Z,5.70
2023-02-17T16:12:40.555Z,6.25
2023-02-17T16:15:15.712Z,5.53
2023-02-17T16:17:45.075Z,5.82
2023-02-17T16:20:20.756Z,5.95
2023-02-17T16:22:49.551Z,6.15
2023-02-17T16:25:23.737Z,5.82
2023-02-17T16:27:57.944Z,6.25
2023-02-17T16:30:34.372Z,6.15
2023-02-17T16:33:08.710Z,5.75
2023-02-17T16:35:44.510Z,5.97
2023-02-17T16:38:22.716Z,6.22
2023-02-17T16:40:54.904Z,6.18
2023-02-17T16:43:27.717Z,6.45
2023-02-17T16:45:58.528Z,6.18
2023-02-17T16:48:36.444Z,7.82
2023-02-17T16:51:06.763Z,5.38
2023-02-17T16:53:35.209Z,6.90
2023-02-17T16:56:18.378Z,6.18
2023-02-17T16:58:46.843Z,6.78
2023-02-17T17:01:15.806Z,6.00
2023-02-17T17:03:51.813Z,6.60
2023-02-17T17:06:26.127Z,6.55
2023-02-17T17:08:55.012Z,4.93
2023-02-17T17:11:26.341Z,6.65
2023-02-17T17:13:55.519Z,6.72
2023-02-17T17:16:28.764Z,6.60
2023-02-17T17:18:58.608Z,6.88
2023-02-17T17:21:28.650Z,6.40
2023-02-17T17:24:00.404Z,5.75
2023-02-17T17:26:33.999Z,5.80
2023-02-17T17:29:02.461Z,5.97
2023-02-17T17:31:30.932Z,5.80
2023-02-17T17:36:56.191Z,6.32
2023-02-17T17:39:25.602Z,5.90
2023-02-17T17:41:56.012Z,5.80
2023-02-17T17:44:24.570Z,6.40
2023-02-17T17:46:53.255Z,6.50
2023-02-17T17:49:22.267Z,6.03
2023-02-17T17:51:52.109Z,6.53
2023-02-17T17:54:22.474Z,5.85
2023-02-17T17:56:52.784Z,6.47
2023-02-17T17:59:21.425Z,6.20
2023-02-17T18:01:50.158Z,6.20
2023-02-17T18:04:18.999Z,6.55
2023-02-17T18:06:51.901Z,6.85
2023-02-17T18:09:31.611Z,6.50
2023-02-17T18:12:06.319Z,5.88
2023-02-17T18:14:39.308Z,6.80
2023-02-17T18:20:06.406Z,6.78
2023-02-17T18:22:42.979Z,6.93
2023-02-17T18:25:13.871Z,5.75
2023-02-17T18:27:46.344Z,6.25
2023-02-17T18:30:20.785Z,6.88
2023-02-17T18:32:50.532Z,7.03
2023-02-17T18:35:20.570Z,7.35
2023-02-17T18:37:52.540Z,6.97
2023-02-17T18:40:26.438Z,6.32
2023-02-17T18:42:57.366Z,6.63
2023-02-17T18:45:31.734Z,7.25
2023-02-17T18:48:00.760Z,7.35
2023-02-17T18:50:33.163Z,7.53
2023-02-17T18:53:05.172Z,7.75
2023-02-17T18:55:39.069Z,7.20
2023-02-17T18:58:12.468Z,6.95
2023-02-17T19:00:41.001Z,7.53
2023-02-17T19:03:10.044Z,6.88
2023-02-17T19:05:38.479Z,7.60
2023-02-17T19:08:11.222Z,7.45
2023-02-17T19:10:41.419Z,8.50
2023-02-17T19:13:10.274Z,7.90
2023-02-17T19:15:39.058Z,9.52
2023-02-17T19:18:08.329Z,7.50
2023-02-17T19:20:36.956Z,8.60
2023-02-17T19:23:05.504Z,8.38
2023-02-17T19:25:34.175Z,9.32
2023-02-17T19:28:04.128Z,10.65
2023-02-17T19:30:32.347Z,9.20
2023-02-17T19:33:01.091Z,9.02
2023-02-17T19:35:31.504Z,8.55
2023-02-17T19:37:59.802Z,8.95
2023-02-17T19:40:28.418Z,9.63
2023-02-17T19:43:01.233Z,9.50
2023-02-17T19:45:32.134Z,9.63
2023-02-17T19:48:00.381Z,9.40
2023-02-17T19:50:29.342Z,9.15
2023-02-17T19:53:00.705Z,8.82
2023-02-17T19:55:28.979Z,10.05
2023-02-17T19:58:03.362Z,9.57
2023-02-17T20:00:33.304Z,11.95
2023-02-17T20:03:01.790Z,10.80
2023-02-17T20:05:33.029Z,10.70
2023-02-17T20:08:03.173Z,11.60
2023-02-17T20:10:31.644Z,11.13
2023-02-17T20:13:00.129Z,10.98
2023-02-17T20:15:28.721Z,12.90
2023-02-17T20:17:58.360Z,13.30
2023-02-17T20:20:26.613Z,12.50
2023-02-17T20:22:54.904Z,13.68
2023-02-17T20:25:23.286Z,12.60
2023-02-17T20:27:55.252Z,12.32
2023-02-17T20:30:23.862Z,12.50
2023-02-17T20:32:52.130Z,13.55
2023-02-17T20:35:22.183Z,12.60
2023-02-17T20:37:50.624Z,15.38
2023-02-17T20:40:19.449Z,14.05
2023-02-17T20:42:48.150Z,14.32
2023-02-17T20:45:20.609Z,14.98
2023-02-17T20:47:49.021Z,15.43
2023-02-17T20:50:20.280Z,14.73
2023-02-17T20:52:52.595Z,15.85
2023-02-17T20:55:21.728Z,15.52
2023-02-17T20:57:50.814Z,17.60
2023-02-17T21:00:23.133Z,17.08
2023-02-17T21:02:52.382Z,18.15
2023-02-17T21:05:21.669Z,16.73
2023-02-17T21:07:52.415Z,17.63
2023-02-17T21:10:48.974Z,17.50
2023-02-17T21:13:24.596Z,18.58
2023-02-17T21:16:04.793Z,16.73
2023-02-17T21:18:34.221Z,19.45
2023-02-17T21:21:29.586Z,18.65
2023-02-17T21:24:30.229Z,20.27
2023-02-17T21:27:01.987Z,18.40
2023-02-17T21:29:31.254Z,18.73
2023-02-17T21:32:03.287Z,19.50
2023-02-17T21:34:38.004Z,18.98
2023-02-17T21:37:08.335Z,17.83
2023-02-17T21:39:40.016Z,19.02
2023-02-17T21:42:08.970Z,20.70
2023-02-17T21:44:53.218Z,19.70
2023-02-17T21:47:26.943Z,18.98
2023-02-17T21:49:56.690Z,19.58
2023-02-17T21:52:26.074Z,19.92
2023-02-17T21:55:06.280Z,20.58
2023-02-17T21:57:37.783Z,20.63
2023-02-17T22:00:42.110Z,21.80
2023-02-17T22:03:29.597Z,20.00
2023-02-17T22:05:58.645Z,20.55
2023-02-17T22:10:54.861Z,23.23
2023-02-17T22:14:07.523Z,22.60
2023-02-17T22:23:12.045Z,22.42
2023-02-17T22:26:20.048Z,23.55
2023-02-17T22:28:51.337Z,22.25
2023-02-17T22:31:23.822Z,24.67
2023-02-17T22:33:55.938Z,24.50
2023-02-17T22:36:27.566Z,24.30
2023-02-17T22:39:18.132Z,25.58
2023-02-17T22:45:06.266Z,26.75
2023-02-17T22:47:35.219Z,26.60
2023-02-17T22:50:28.223Z,26.38
2023-02-17T22:53:15.471Z,25.50
2023-02-17T22:55:55.983Z,23.63
2023-02-17T22:58:27.357Z,22.40
2023-02-17T23:01:08.260Z,23.38
2023-02-17T23:03:40.371Z,23.88
2023-02-17T23:06:13.662Z,25.25
2023-02-17T23:08:43.353Z,24.58
2023-02-17T23:11:15.811Z,23.33
2023-02-17T23:13:45.962Z,23.25
2023-02-17T23:16:31.622Z,21.25
2023-02-17T23:19:08.397Z,22.40
2023-02-17T23:21:40.068Z,21.33
2023-02-17T23:24:10.234Z,20.77
2023-02-17T23:26:44.293Z,21.27
2023-02-17T23:29:31.926Z,21.15
2023-02-17T23:32:05.400Z,21.73
2023-02-17T23:34:38.197Z,22.20
2023-02-17T23:37:10.003Z,20.92
2023-02-17T23:39:39.584Z,20.73
2023-02-17T23:45:14.855Z,19.73
2023-02-17T23:47:48.249Z,17.98
2023-02-17T23:50:20.327Z,18.20
2023-02-17T23:52:49.282Z,17.50
2023-02-17T23:55:18.418Z,17.58
2023-02-17T23:57:47.413Z,17.88
